sensor_id;sensor_type;location;lat;lon;timestamp;pressure;altitude;pressure_sealevel;temperature;humidity
77090;BME280;66028;53.558;9.950;2024-03-02T00:00:06;100211.34;;;8.65;81.51
77090;BME280;66028;53.558;9.950;2024-03-02T00:02:43;100216.88;;;8.59;81.68
77090;BME280;66028;53.558;9.950;2024-03-02T00:05:13;100213.34;;;8.58;81.88
77090;BME280;66028;53.558;9.950;2024-03-02T00:07:44;100212.63;;;8.63;81.45
77090;BME280;66028;53.558;9.950;2024-03-02T00:10:11;100218.97;;;8.69;80.88
77090;BME280;66028;53.558;9.950;2024-03-02T00:12:37;100210.03;;;8.68;81.01
77090;BME280;66028;53.558;9.950;2024-03-02T00:15:26;100209.06;;;8.74;80.56
77090;BME280;66028;53.558;9.950;2024-03-02T00:17:58;100205.94;;;8.65;80.45
77090;BME280;66028;53.558;9.950;2024-03-02T00:20:24;100204.06;;;8.66;80.97
77090;BME280;66028;53.558;9.950;2024-03-02T00:23:01;100209.69;;;8.64;80.46
77090;BME280;66028;53.558;9.950;2024-03-02T00:25:27;100202.56;;;8.58;81.02
77090;BME280;66028;53.558;9.950;2024-03-02T00:27:59;100194.22;;;8.60;80.87
77090;BME280;66028;53.558;9.950;2024-03-02T00:33:14;100189.16;;;8.63;80.96
77090;BME280;66028;53.558;9.950;2024-03-02T00:35:39;100182.72;;;8.64;80.80
77090;BME280;66028;53.558;9.950;2024-03-02T00:38:04;100182.94;;;8.63;81.42
77090;BME280;66028;53.558;9.950;2024-03-02T00:40:31;100187.53;;;8.62;81.06
77090;BME280;66028;53.558;9.950;2024-03-02T00:42:57;100188.59;;;8.61;81.81
77090;BME280;66028;53.558;9.950;2024-03-02T00:45:22;100180.41;;;8.56;81.91
77090;BME280;66028;53.558;9.950;2024-03-02T00:47:49;100175.09;;;8.61;82.07
77090;BME280;66028;53.558;9.950;2024-03-02T00:50:15;100172.31;;;8.56;82.82
77090;BME280;66028;53.558;9.950;2024-03-02T00:52:40;100184.16;;;8.55;81.99
77090;BME280;66028;53.558;9.950;2024-03-02T00:55:06;100181.13;;;8.52;82.56
77090;BME280;66028;53.558;9.950;2024-03-02T00:57:33;100177.94;;;8.55;82.80
77090;BME280;66028;53.558;9.950;2024-03-02T00:59:59;100179.47;;;8.51;82.48
77090;BME280;66028;53.558;9.950;2024-03-02T01:02:25;100177.25;;;8.48;83.02
77090;BME280;66028;53.558;9.950;2024-03-02T01:04:50;100184.44;;;8.42;84.27
77090;BME280;66028;53.558;9.950;2024-03-02T01:07:15;100191.81;;;8.47;84.13
77090;BME280;66028;53.558;9.950;2024-03-02T01:09:40;100189.50;;;8.39;85.01
77090;BME280;66028;53.558;9.950;2024-03-02T01:12:06;100188.91;;;8.37;85.67
77090;BME280;66028;53.558;9.950;2024-03-02T01:14:31;100199.94;;;8.35;84.93
77090;BME280;66028;53.558;9.950;2024-03-02T01:16:56;100198.56;;;8.33;85.95
77090;BME280;66028;53.558;9.950;2024-03-02T01:19:22;100190.56;;;8.26;86.20
77090;BME280;66028;53.558;9.950;2024-03-02T01:21:47;100191.38;;;8.26;86.19
77090;BME280;66028;53.558;9.950;2024-03-02T01:24:12;100189.38;;;8.22;87.53
77090;BME280;66028;53.558;9.950;2024-03-02T01:26:38;100193.28;;;8.14;87.57
77090;BME280;66028;53.558;9.950;2024-03-02T01:29:03;100189.75;;;8.14;88.86
77090;BME280;66028;53.558;9.950;2024-03-02T01:31:28;100189.66;;;8.09;88.88
77090;BME280;66028;53.558;9.950;2024-03-02T01:33:53;100184.97;;;8.04;88.75
77090;BME280;66028;53.558;9.950;2024-03-02T01:36:19;100188.59;;;7.98;89.51
77090;BME280;66028;53.558;9.950;2024-03-02T01:38:44;100186.63;;;7.93;90.17
77090;BME280;66028;53.558;9.950;2024-03-02T01:41:09;100180.66;;;7.91;90.87
77090;BME280;66028;53.558;9.950;2024-03-02T01:43:35;100185.47;;;7.89;90.93
77090;BME280;66028;53.558;9.950;2024-03-02T01:46:00;100177.38;;;7.89;90.95
77090;BME280;66028;53.558;9.950;2024-03-02T01:48:25;100187.25;;;7.84;91.67
77090;BME280;66028;53.558;9.950;2024-03-02T01:50:51;100183.38;;;7.80;91.41
77090;BME280;66028;53.558;9.950;2024-03-02T01:53:16;100187.81;;;7.74;92.51
77090;BME280;66028;53.558;9.950;2024-03-02T01:55:41;100183.25;;;7.75;91.96
77090;BME280;66028;53.558;9.950;2024-03-02T01:58:06;100178.00;;;7.68;92.34
77090;BME280;66028;53.558;9.950;2024-03-02T02:00:32;100169.56;;;7.65;92.37
77090;BME280;66028;53.558;9.950;2024-03-02T02:02:57;100175.31;;;7.68;92.13
77090;BME280;66028;53.558;9.950;2024-03-02T02:05:23;100171.66;;;7.63;92.38
77090;BME280;66028;53.558;9.950;2024-03-02T02:07:48;100171.66;;;7.63;93.17
77090;BME280;66028;53.558;9.950;2024-03-02T02:10:14;100169.44;;;7.59;92.86
77090;BME280;66028;53.558;9.950;2024-03-02T02:12:39;100171.66;;;7.63;93.33
77090;BME280;66028;53.558;9.950;2024-03-02T02:15:26;100156.53;;;7.62;92.40
77090;BME280;66028;53.558;9.950;2024-03-02T02:17:52;100162.66;;;7.57;93.32
77090;BME280;66028;53.558;9.950;2024-03-02T02:20:17;100151.28;;;7.55;93.40
77090;BME280;66028;53.558;9.950;2024-03-02T02:22:59;100158.69;;;7.59;92.18
77090;BME280;66028;53.558;9.950;2024-03-02T02:25:25;100167.22;;;7.56;92.58
77090;BME280;66028;53.558;9.950;2024-03-02T02:27:50;100143.56;;;7.58;91.87
77090;BME280;66028;53.558;9.950;2024-03-02T02:30:25;100151.53;;;7.53;92.10
77090;BME280;66028;53.558;9.950;2024-03-02T02:32:51;100151.75;;;7.52;91.76
77090;BME280;66028;53.558;9.950;2024-03-02T02:35:16;100142.03;;;7.51;91.46
77090;BME280;66028;53.558;9.950;2024-03-02T02:37:42;100139.91;;;7.53;91.46
77090;BME280;66028;53.558;9.950;2024-03-02T02:40:08;100141.78;;;7.52;91.13
77090;BME280;66028;53.558;9.950;2024-03-02T02:42:34;100148.81;;;7.53;91.58
77090;BME280;66028;53.558;9.950;2024-03-02T02:44:59;100141.09;;;7.57;91.25
77090;BME280;66028;53.558;9.950;2024-03-02T02:47:25;100138.41;;;7.57;90.45
77090;BME280;66028;53.558;9.950;2024-03-02T02:49:51;100131.59;;;7.54;91.44
77090;BME280;66028;53.558;9.950;2024-03-02T02:52:16;100137.22;;;7.53;91.61
77090;BME280;66028;53.558;9.950;2024-03-02T02:54:43;100132.91;;;7.52;91.48
77090;BME280;66028;53.558;9.950;2024-03-02T02:57:09;100137.69;;;7.50;91.31
77090;BME280;66028;53.558;9.950;2024-03-02T02:59:35;100132.91;;;7.52;91.85
77090;BME280;66028;53.558;9.950;2024-03-02T03:02:00;100137.22;;;7.53;91.22
77090;BME280;66028;53.558;9.950;2024-03-02T03:04:25;100144.72;;;7.51;91.78
77090;BME280;66028;53.558;9.950;2024-03-02T03:06:51;100147.41;;;7.51;91.54
77090;BME280;66028;53.558;9.950;2024-03-02T03:09:16;100131.16;;;7.57;90.92
77090;BME280;66028;53.558;9.950;2024-03-02T03:11:41;100134.53;;;7.53;91.78
77090;BME280;66028;53.558;9.950;2024-03-02T03:14:06;100134.75;;;7.51;91.91
77090;BME280;66028;53.558;9.950;2024-03-02T03:16:31;100133.63;;;7.47;92.30
77090;BME280;66028;53.558;9.950;2024-03-02T03:18:56;100129.16;;;7.53;91.54
77090;BME280;66028;53.558;9.950;2024-03-02T03:21:22;100136.03;;;7.49;91.14
77090;BME280;66028;53.558;9.950;2024-03-02T03:23:47;100128.31;;;7.52;90.61
77090;BME280;66028;53.558;9.950;2024-03-02T03:26:12;100130.94;;;7.47;91.43
77090;BME280;66028;53.558;9.950;2024-03-02T03:28:38;100139.81;;;7.48;91.10
77090;BME280;66028;53.558;9.950;2024-03-02T03:31:04;100140.88;;;7.47;91.15
77090;BME280;66028;53.558;9.950;2024-03-02T03:33:29;100130.66;;;7.49;90.72
77090;BME280;66028;53.558;9.950;2024-03-02T03:35:54;100135.13;;;7.55;91.01
77090;BME280;66028;53.558;9.950;2024-03-02T03:38:19;100138.66;;;7.44;91.11
77090;BME280;66028;53.558;9.950;2024-03-02T03:40:44;100134.91;;;7.45;90.74
77090;BME280;66028;53.558;9.950;2024-03-02T03:43:10;100137.81;;;7.43;90.92
77090;BME280;66028;53.558;9.950;2024-03-02T03:45:35;100139.94;;;7.41;90.96
77090;BME280;66028;53.558;9.950;2024-03-02T03:48:00;100142.84;;;7.40;90.92
77090;BME280;66028;53.558;9.950;2024-03-02T03:50:26;100132.66;;;7.42;90.99
77090;BME280;66028;53.558;9.950;2024-03-02T03:52:51;100126.69;;;7.40;89.97
77090;BME280;66028;53.558;9.950;2024-03-02T03:55:16;100127.97;;;7.37;90.58
77090;BME280;66028;53.558;9.950;2024-03-02T03:57:42;100127.16;;;7.37;90.70
77090;BME280;66028;53.558;9.950;2024-03-02T04:00:07;100131.38;;;7.44;89.98
77090;BME280;66028;53.558;9.950;2024-03-02T04:02:35;100126.47;;;7.41;90.58
77090;BME280;66028;53.558;9.950;2024-03-02T04:05:00;100127.75;;;7.39;90.61
77090;BME280;66028;53.558;9.950;2024-03-02T04:07:25;100121.31;;;7.40;90.46
77090;BME280;66028;53.558;9.950;2024-03-02T04:09:50;100122.59;;;7.37;90.43
77090;BME280;66028;53.558;9.950;2024-03-02T04:12:16;100120.72;;;7.38;90.04
77090;BME280;66028;53.558;9.950;2024-03-02T04:14:41;100117.69;;;7.34;90.42
77090;BME280;66028;53.558;9.950;2024-03-02T04:17:07;100117.94;;;7.33;90.94
77090;BME280;66028;53.558;9.950;2024-03-02T04:19:32;100114.41;;;7.32;90.08
77090;BME280;66028;53.558;9.950;2024-03-02T04:21:57;100116.88;;;7.34;89.50
77090;BME280;66028;53.558;9.950;2024-03-02T04:24:23;100117.09;;;7.32;89.46
77090;BME280;66028;53.558;9.950;2024-03-02T04:26:48;100117.34;;;7.31;90.03
77090;BME280;66028;53.558;9.950;2024-03-02T04:29:13;100112.41;;;7.28;89.97
77090;BME280;66028;53.558;9.950;2024-03-02T04:31:38;100114.50;;;7.26;89.78
77090;BME280;66028;53.558;9.950;2024-03-02T04:34:04;100122.94;;;7.29;89.77
77090;BME280;66028;53.558;9.950;2024-03-02T04:36:29;100136.63;;;7.28;90.07
77090;BME280;66028;53.558;9.950;2024-03-02T04:38:54;100128.78;;;7.26;90.16
77090;BME280;66028;53.558;9.950;2024-03-02T04:41:20;100139.56;;;7.26;90.19
77090;BME280;66028;53.558;9.950;2024-03-02T04:43:45;100137.91;;;7.25;89.54
77090;BME280;66028;53.558;9.950;2024-03-02T04:46:10;100144.38;;;7.24;89.66
77090;BME280;66028;53.558;9.950;2024-03-02T04:48:35;100143.31;;;7.25;90.39
77090;BME280;66028;53.558;9.950;2024-03-02T04:51:01;100142.75;;;7.23;89.84
77090;BME280;66028;53.558;9.950;2024-03-02T04:53:26;100139.47;;;7.21;89.84
77090;BME280;66028;53.558;9.950;2024-03-02T04:55:51;100141.78;;;7.17;90.26
77090;BME280;66028;53.558;9.950;2024-03-02T04:58:35;100139.09;;;7.17;90.40
77090;BME280;66028;53.558;9.950;2024-03-02T05:01:00;100129.50;;;7.21;90.73
77090;BME280;66028;53.558;9.950;2024-03-02T05:03:26;100131.03;;;7.17;90.14
77090;BME280;66028;53.558;9.950;2024-03-02T05:05:51;100129.97;;;7.18;89.92
77090;BME280;66028;53.558;9.950;2024-03-02T05:08:16;100123.19;;;7.16;90.55
77090;BME280;66028;53.558;9.950;2024-03-02T05:10:42;100124.00;;;7.16;90.08
77090;BME280;66028;53.558;9.950;2024-03-02T05:13:07;100126.69;;;7.16;89.99
77090;BME280;66028;53.558;9.950;2024-03-02T05:15:32;100116.16;;;7.15;90.22
77090;BME280;66028;53.558;9.950;2024-03-02T05:17:57;100123.19;;;7.16;90.07
77090;BME280;66028;53.558;9.950;2024-03-02T05:20:24;100125.03;;;7.15;89.58
77090;BME280;66028;53.558;9.950;2024-03-02T05:22:49;100128.56;;;7.16;89.70
77090;BME280;66028;53.558;9.950;2024-03-02T05:25:15;100126.81;;;7.10;90.12
77090;BME280;66028;53.558;9.950;2024-03-02T05:27:40;100122.25;;;7.10;89.99
77090;BME280;66028;53.558;9.950;2024-03-02T05:30:06;100126.44;;;7.06;89.50
77090;BME280;66028;53.558;9.950;2024-03-02T05:32:32;100133.47;;;7.07;90.28
77090;BME280;66028;53.558;9.950;2024-03-02T05:34:58;100127.50;;;7.05;90.33
77090;BME280;66028;53.558;9.950;2024-03-02T05:37:23;100129.13;;;7.06;90.44
77090;BME280;66028;53.558;9.950;2024-03-02T05:39:48;100131.84;;;7.06;90.00
77090;BME280;66028;53.558;9.950;2024-03-02T05:42:13;100134.16;;;7.14;89.68
77090;BME280;66028;53.558;9.950;2024-03-02T05:44:39;100128.69;;;7.09;89.05
77090;BME280;66028;53.558;9.950;2024-03-02T05:47:05;100125.53;;;7.12;89.00
77090;BME280;66028;53.558;9.950;2024-03-02T05:49:30;100127.75;;;7.15;89.03
77090;BME280;66028;53.558;9.950;2024-03-02T05:51:55;100121.53;;;7.15;88.80
77090;BME280;66028;53.558;9.950;2024-03-02T05:54:21;100125.88;;;7.16;88.74
77090;BME280;66028;53.558;9.950;2024-03-02T05:56:47;100127.75;;;7.15;89.09
77090;BME280;66028;53.558;9.950;2024-03-02T05:59:12;100127.97;;;7.14;89.30
77090;BME280;66028;53.558;9.950;2024-03-02T06:01:42;100131.97;;;7.11;89.03
77090;BME280;66028;53.558;9.950;2024-03-02T06:04:08;100134.06;;;7.09;89.87
77090;BME280;66028;53.558;9.950;2024-03-02T06:06:33;100133.25;;;7.09;89.60
77090;BME280;66028;53.558;9.950;2024-03-02T06:09:00;100134.88;;;7.10;88.80
77090;BME280;66028;53.558;9.950;2024-03-02T06:11:25;100137.22;;;7.06;89.43
77090;BME280;66028;53.558;9.950;2024-03-02T06:13:50;100141.41;;;7.02;90.18
77090;BME280;66028;53.558;9.950;2024-03-02T06:16:16;100130.88;;;7.01;89.49
77090;BME280;66028;53.558;9.950;2024-03-02T06:18:41;100139.31;;;7.04;89.65
77090;BME280;66028;53.558;9.950;2024-03-02T06:21:06;100132.78;;;7.00;89.20
77090;BME280;66028;53.558;9.950;2024-03-02T06:23:31;100139.22;;;6.99;89.44
77090;BME280;66028;53.558;9.950;2024-03-02T06:25:57;100139.66;;;6.96;89.69
77090;BME280;66028;53.558;9.950;2024-03-02T06:28:22;100126.44;;;6.95;88.90
77090;BME280;66028;53.558;9.950;2024-03-02T06:30:47;100137.56;;;6.98;89.22
77090;BME280;66028;53.558;9.950;2024-03-02T06:33:13;100135.34;;;6.95;88.91
77090;BME280;66028;53.558;9.950;2024-03-02T06:35:38;100130.19;;;6.94;89.06
77090;BME280;66028;53.558;9.950;2024-03-02T06:38:04;100129.59;;;6.92;89.74
77090;BME280;66028;53.558;9.950;2024-03-02T06:40:29;100131.97;;;7.00;88.17
77090;BME280;66028;53.558;9.950;2024-03-02T06:42:54;100132.50;;;7.02;89.11
77090;BME280;66028;53.558;9.950;2024-03-02T06:45:20;100133.81;;;6.99;88.88
77090;BME280;66028;53.558;9.950;2024-03-02T06:47:45;100140.38;;;7.03;88.27
77090;BME280;66028;53.558;9.950;2024-03-02T06:50:11;100139.91;;;7.06;88.44
77090;BME280;66028;53.558;9.950;2024-03-02T06:52:36;100145.88;;;7.08;88.16
77090;BME280;66028;53.558;9.950;2024-03-02T06:55:02;100133.84;;;7.11;88.01
77090;BME280;66028;53.558;9.950;2024-03-02T06:57:27;100137.47;;;7.16;87.73
77090;BME280;66028;53.558;9.950;2024-03-02T06:59:52;100130.94;;;7.24;87.50
77090;BME280;66028;53.558;9.950;2024-03-02T07:02:20;100135.50;;;7.23;87.81
77090;BME280;66028;53.558;9.950;2024-03-02T07:04:45;100151.38;;;7.25;87.51
77090;BME280;66028;53.558;9.950;2024-03-02T07:07:11;100158.53;;;7.31;86.63
77090;BME280;66028;53.558;9.950;2024-03-02T07:09:37;100167.69;;;7.42;86.41
77090;BME280;66028;53.558;9.950;2024-03-02T07:12:02;100169.19;;;7.38;86.88
77090;BME280;66028;53.558;9.950;2024-03-02T07:14:27;100174.34;;;7.39;86.93
77090;BME280;66028;53.558;9.950;2024-03-02T07:17:12;100172.59;;;7.45;86.16
77090;BME280;66028;53.558;9.950;2024-03-02T07:19:38;100179.28;;;7.42;87.50
77090;BME280;66028;53.558;9.950;2024-03-02T07:22:06;100180.69;;;7.45;86.76
77090;BME280;66028;53.558;9.950;2024-03-02T07:24:32;100174.72;;;7.43;87.20
77090;BME280;66028;53.558;9.950;2024-03-02T07:26:57;100184.28;;;7.39;86.75
77090;BME280;66028;53.558;9.950;2024-03-02T07:29:22;100179.50;;;7.41;86.55
77090;BME280;66028;53.558;9.950;2024-03-02T07:31:48;100184.44;;;7.44;85.70
77090;BME280;66028;53.558;9.950;2024-03-02T07:34:13;100175.63;;;7.37;86.19
77090;BME280;66028;53.558;9.950;2024-03-02T07:36:38;100181.59;;;7.39;86.75
77090;BME280;66028;53.558;9.950;2024-03-02T07:39:04;100190.41;;;7.46;86.44
77090;BME280;66028;53.558;9.950;2024-03-02T07:41:29;100192.38;;;7.50;85.84
77090;BME280;66028;53.558;9.950;2024-03-02T07:43:55;100190.19;;;7.47;85.98
77090;BME280;66028;53.558;9.950;2024-03-02T07:46:20;100190.19;;;7.47;86.37
77090;BME280;66028;53.558;9.950;2024-03-02T07:48:45;100198.81;;;7.49;85.90
77090;BME280;66028;53.558;9.950;2024-03-02T07:51:10;100208.31;;;7.52;86.39
77090;BME280;66028;53.558;9.950;2024-03-02T07:53:36;100205.53;;;7.58;85.42
77090;BME280;66028;53.558;9.950;2024-03-02T07:56:01;100209.50;;;7.56;86.37
77090;BME280;66028;53.558;9.950;2024-03-02T07:58:27;100211.25;;;7.62;85.01
77090;BME280;66028;53.558;9.950;2024-03-02T08:00:52;100213.47;;;7.65;85.42
77090;BME280;66028;53.558;9.950;2024-03-02T08:03:18;100221.69;;;7.58;85.93
77090;BME280;66028;53.558;9.950;2024-03-02T08:05:43;100219.91;;;7.64;85.77
77090;BME280;66028;53.558;9.950;2024-03-02T08:08:09;100220.50;;;7.66;85.75
77090;BME280;66028;53.558;9.950;2024-03-02T08:10:34;100223.09;;;7.73;85.34
77090;BME280;66028;53.558;9.950;2024-03-02T08:12:59;100225.44;;;7.69;85.39
77090;BME280;66028;53.558;9.950;2024-03-02T08:15:25;100225.66;;;7.79;84.84
77090;BME280;66028;53.558;9.950;2024-03-02T08:17:50;100223.09;;;7.73;84.74
77090;BME280;66028;53.558;9.950;2024-03-02T08:20:16;100229.28;;;7.73;85.31
77090;BME280;66028;53.558;9.950;2024-03-02T08:22:41;100222.38;;;7.77;84.88
77090;BME280;66028;53.558;9.950;2024-03-02T08:25:07;100224.38;;;7.82;84.62
77090;BME280;66028;53.558;9.950;2024-03-02T08:27:33;100225.31;;;7.87;84.28
77090;BME280;66028;53.558;9.950;2024-03-02T08:29:58;100225.44;;;7.81;84.80
77090;BME280;66028;53.558;9.950;2024-03-02T08:32:23;100226.13;;;8.00;83.89
77090;BME280;66028;53.558;9.950;2024-03-02T08:34:49;100227.16;;;7.99;83.35
77090;BME280;66028;53.558;9.950;2024-03-02T08:37:14;100231.03;;;8.03;83.99
77090;BME280;66028;53.558;9.950;2024-03-02T08:39:39;100230.22;;;8.02;83.23
77090;BME280;66028;53.558;9.950;2024-03-02T08:42:05;100231.03;;;8.03;83.63
77090;BME280;66028;53.558;9.950;2024-03-02T08:44:30;100237.09;;;8.21;82.68
77090;BME280;66028;53.558;9.950;2024-03-02T08:46:55;100239.47;;;8.41;82.58
77090;BME280;66028;53.558;9.950;2024-03-02T08:49:21;100236.50;;;8.54;81.91
77090;BME280;66028;53.558;9.950;2024-03-02T08:51:46;100232.59;;;8.62;81.28
77090;BME280;66028;53.558;9.950;2024-03-02T08:54:19;100233.34;;;8.74;80.98
77090;BME280;66028;53.558;9.950;2024-03-02T08:56:44;100234.00;;;9.10;79.70
77090;BME280;66028;53.558;9.950;2024-03-02T08:59:10;100238.00;;;9.52;77.95
77090;BME280;66028;53.558;9.950;2024-03-02T09:01:37;100229.72;;;9.75;76.38
77090;BME280;66028;53.558;9.950;2024-03-02T09:04:06;100238.94;;;9.80;76.61
77090;BME280;66028;53.558;9.950;2024-03-02T09:06:33;100233.72;;;10.28;74.88
77090;BME280;66028;53.558;9.950;2024-03-02T09:08:59;100242.00;;;10.38;74.14
77090;BME280;66028;53.558;9.950;2024-03-02T09:11:24;100232.91;;;10.50;73.91
77090;BME280;66028;53.558;9.950;2024-03-02T09:13:50;100236.44;;;10.50;73.97
77090;BME280;66028;53.558;9.950;2024-03-02T09:16:15;100236.28;;;10.40;73.68
77090;BME280;66028;53.558;9.950;2024-03-02T09:18:40;100238.47;;;10.38;73.37
77090;BME280;66028;53.558;9.950;2024-03-02T09:21:06;100233.16;;;10.09;74.34
77090;BME280;66028;53.558;9.950;2024-03-02T09:23:31;100241.53;;;10.08;74.44
77090;BME280;66028;53.558;9.950;2024-03-02T09:25:57;100244.25;;;10.25;74.15
77090;BME280;66028;53.558;9.950;2024-03-02T09:28:22;100246.69;;;10.26;74.28
77090;BME280;66028;53.558;9.950;2024-03-02T09:30:47;100238.88;;;10.30;74.01
77090;BME280;66028;53.558;9.950;2024-03-02T09:33:12;100250.09;;;10.38;73.65
77090;BME280;66028;53.558;9.950;2024-03-02T09:35:38;100243.19;;;10.48;73.54
77090;BME280;66028;53.558;9.950;2024-03-02T09:38:03;100244.72;;;10.65;72.56
77090;BME280;66028;53.558;9.950;2024-03-02T09:40:29;100244.59;;;10.99;71.90
77090;BME280;66028;53.558;9.950;2024-03-02T09:42:55;100237.38;;;11.09;70.95
77090;BME280;66028;53.558;9.950;2024-03-02T09:45:23;100241.34;;;11.02;70.84
77090;BME280;66028;53.558;9.950;2024-03-02T09:47:49;100237.81;;;11.28;69.88
77090;BME280;66028;53.558;9.950;2024-03-02T09:50:14;100237.50;;;11.25;69.76
77090;BME280;66028;53.558;9.950;2024-03-02T09:52:42;100242.41;;;11.60;69.11
77090;BME280;66028;53.558;9.950;2024-03-02T09:55:08;100236.88;;;11.76;69.00
77090;BME280;66028;53.558;9.950;2024-03-02T09:57:33;100240.66;;;11.75;68.01
77090;BME280;66028;53.558;9.950;2024-03-02T09:59:59;100241.91;;;11.95;67.62
77090;BME280;66028;53.558;9.950;2024-03-02T10:02:24;100248.53;;;11.77;68.11
77090;BME280;66028;53.558;9.950;2024-03-02T10:04:50;100241.22;;;11.77;67.72
77090;BME280;66028;53.558;9.950;2024-03-02T10:07:17;100247.63;;;11.66;68.65
77090;BME280;66028;53.558;9.950;2024-03-02T10:09:44;100241.06;;;11.62;68.17
77090;BME280;66028;53.558;9.950;2024-03-02T10:12:11;100249.63;;;11.76;68.09
77090;BME280;66028;53.558;9.950;2024-03-02T10:14:37;100246.53;;;11.67;67.95
77090;BME280;66028;53.558;9.950;2024-03-02T10:17:07;100241.56;;;11.54;67.79
77090;BME280;66028;53.558;9.950;2024-03-02T10:19:33;100241.16;;;11.40;68.52
77090;BME280;66028;53.558;9.950;2024-03-02T10:22:01;100236.22;;;11.32;68.59
77090;BME280;66028;53.558;9.950;2024-03-02T10:24:28;100246.09;;;11.43;68.21
77090;BME280;66028;53.558;9.950;2024-03-02T10:26:59;100241.69;;;11.37;67.86
77090;BME280;66028;53.558;9.950;2024-03-02T10:29:24;100236.66;;;11.51;67.92
77090;BME280;66028;53.558;9.950;2024-03-02T10:31:53;100241.69;;;11.74;67.70
77090;BME280;66028;53.558;9.950;2024-03-02T10:34:19;100239.09;;;11.84;66.98
77090;BME280;66028;53.558;9.950;2024-03-02T10:36:47;100242.72;;;12.00;65.49
77090;BME280;66028;53.558;9.950;2024-03-02T10:39:13;100254.44;;;12.06;66.15
77090;BME280;66028;53.558;9.950;2024-03-02T10:41:39;100246.38;;;12.21;65.33
77090;BME280;66028;53.558;9.950;2024-03-02T10:44:07;100246.41;;;12.26;65.94
77090;BME280;66028;53.558;9.950;2024-03-02T10:46:33;100244.81;;;12.35;65.94
77090;BME280;66028;53.558;9.950;2024-03-02T10:49:00;100256.91;;;12.70;64.73
77090;BME280;66028;53.558;9.950;2024-03-02T10:51:26;100251.06;;;12.36;64.78
77090;BME280;66028;53.558;9.950;2024-03-02T10:53:54;100249.72;;;12.38;64.47
77090;BME280;66028;53.558;9.950;2024-03-02T10:56:39;100255.16;;;12.38;64.56
77090;BME280;66028;53.558;9.950;2024-03-02T10:59:20;100255.47;;;12.42;64.74
77090;BME280;66028;53.558;9.950;2024-03-02T11:01:50;100260.56;;;12.33;65.04
77090;BME280;66028;53.558;9.950;2024-03-02T11:04:16;100259.38;;;12.71;63.77
77090;BME280;66028;53.558;9.950;2024-03-02T11:06:49;100259.88;;;12.63;63.09
77090;BME280;66028;53.558;9.950;2024-03-02T11:09:18;100256.66;;;12.66;62.71
77090;BME280;66028;53.558;9.950;2024-03-02T11:11:48;100256.59;;;12.56;62.92
77090;BME280;66028;53.558;9.950;2024-03-02T11:14:17;100257.72;;;12.65;63.32
77090;BME280;66028;53.558;9.950;2024-03-02T11:16:46;100262.09;;;12.66;62.84
77090;BME280;66028;53.558;9.950;2024-03-02T11:19:13;100265.81;;;12.50;62.81
77090;BME280;66028;53.558;9.950;2024-03-02T11:21:39;100270.72;;;12.58;62.65
77090;BME280;66028;53.558;9.950;2024-03-02T11:26:49;100267.03;;;12.79;61.74
77090;BME280;66028;53.558;9.950;2024-03-02T11:32:00;100273.47;;;12.63;61.98
77090;BME280;66028;53.558;9.950;2024-03-02T11:36:55;100268.09;;;12.83;61.48
77090;BME280;66028;53.558;9.950;2024-03-02T11:39:20;100278.03;;;13.15;60.41
77090;BME280;66028;53.558;9.950;2024-03-02T11:41:46;100276.66;;;13.22;60.44
77090;BME280;66028;53.558;9.950;2024-03-02T11:44:11;100278.84;;;13.20;60.05
77090;BME280;66028;53.558;9.950;2024-03-02T11:46:39;100271.63;;;12.84;61.65
77090;BME280;66028;53.558;9.950;2024-03-02T11:49:04;100268.44;;;13.02;60.82
77090;BME280;66028;53.558;9.950;2024-03-02T11:51:33;100272.38;;;12.69;61.55
77090;BME280;66028;53.558;9.950;2024-03-02T11:54:00;100269.47;;;12.86;60.75
77090;BME280;66028;53.558;9.950;2024-03-02T11:56:28;100278.47;;;12.91;61.29
77090;BME280;66028;53.558;9.950;2024-03-02T11:58:54;100274.88;;;12.81;60.48
77090;BME280;66028;53.558;9.950;2024-03-02T12:01:20;100272.50;;;13.05;60.53
77090;BME280;66028;53.558;9.950;2024-03-02T12:03:46;100275.56;;;13.18;60.61
77090;BME280;66028;53.558;9.950;2024-03-02T12:06:11;100275.00;;;13.16;59.92
77090;BME280;66028;53.558;9.950;2024-03-02T12:08:38;100277.34;;;12.82;60.94
77090;BME280;66028;53.558;9.950;2024-03-02T12:11:03;100263.53;;;12.89;60.89
77090;BME280;66028;53.558;9.950;2024-03-02T12:13:29;100264.31;;;12.84;60.60
77090;BME280;66028;53.558;9.950;2024-03-02T12:15:55;100265.41;;;12.88;59.89
77090;BME280;66028;53.558;9.950;2024-03-02T12:18:21;100261.03;;;12.77;60.75
77090;BME280;66028;53.558;9.950;2024-03-02T12:20:49;100267.38;;;13.03;59.90
77090;BME280;66028;53.558;9.950;2024-03-02T12:23:15;100266.00;;;13.01;59.86
77090;BME280;66028;53.558;9.950;2024-03-02T12:25:41;100256.50;;;13.13;59.42
77090;BME280;66028;53.558;9.950;2024-03-02T12:28:07;100252.13;;;13.02;59.55
77090;BME280;66028;53.558;9.950;2024-03-02T12:30:35;100251.81;;;12.93;59.96
77090;BME280;66028;53.558;9.950;2024-03-02T12:33:00;100251.50;;;12.75;59.82
77090;BME280;66028;53.558;9.950;2024-03-02T12:35:26;100247.19;;;12.84;59.80
77090;BME280;66028;53.558;9.950;2024-03-02T12:37:53;100247.13;;;12.69;60.39
77090;BME280;66028;53.558;9.950;2024-03-02T12:40:19;100246.34;;;12.73;59.78
77090;BME280;66028;53.558;9.950;2024-03-02T12:42:46;100238.41;;;12.56;60.62
77090;BME280;66028;53.558;9.950;2024-03-02T12:45:13;100245.56;;;12.78;60.04
77090;BME280;66028;53.558;9.950;2024-03-02T12:47:42;100241.44;;;12.65;59.87
77090;BME280;66028;53.558;9.950;2024-03-02T12:50:08;100256.91;;;12.65;59.60
77090;BME280;66028;53.558;9.950;2024-03-02T12:52:34;100240.28;;;12.56;60.33
77090;BME280;66028;53.558;9.950;2024-03-02T12:55:00;100250.97;;;12.83;59.04
77090;BME280;66028;53.558;9.950;2024-03-02T12:57:28;100235.00;;;13.07;59.03
77090;BME280;66028;53.558;9.950;2024-03-02T13:00:01;100245.41;;;13.15;58.74
77090;BME280;66028;53.558;9.950;2024-03-02T13:02:30;100243.69;;;12.93;58.84